createdAt,value
2018-12-07T00:00:31.604Z,100863.41
2018-12-07T00:02:59.176Z,100851.33
2018-12-07T00:05:26.746Z,100850.56
2018-12-07T00:07:54.283Z,100850.75
2018-12-07T00:10:21.766Z,100851.63
2018-12-07T00:12:49.260Z,100843.73
2018-12-07T00:15:16.742Z,100835.27
2018-12-07T00:17:44.228Z,100838.05
2018-12-07T00:20:11.729Z,100830.80
2018-12-07T00:22:39.187Z,100830.64
2018-12-07T00:25:06.716Z,100831.87
2018-12-07T00:27:34.197Z,100824.11
2018-12-07T00:30:01.676Z,100832.48
2018-12-07T00:32:29.145Z,100820.33
2018-12-07T00:34:56.639Z,100808.56
2018-12-07T00:37:24.122Z,100801.83
2018-12-07T00:39:51.663Z,100801.89
2018-12-07T00:42:19.155Z,100798.28
2018-12-07T00:44:48.336Z,100800.59
2018-12-07T00:47:15.991Z,100806.77
2018-12-07T00:49:43.467Z,100812.70
2018-12-07T00:52:10.940Z,100813.25
2018-12-07T00:54:38.421Z,100813.50
2018-12-07T00:57:05.967Z,100805.47
2018-12-07T00:59:33.445Z,100800.78
2018-12-07T01:02:01.036Z,100798.99
2018-12-07T01:04:28.493Z,100791.70
2018-12-07T01:06:56.049Z,100783.84
2018-12-07T01:09:23.544Z,100779.29
2018-12-07T01:11:51.008Z,100766.73
2018-12-07T01:14:18.495Z,100777.30
2018-12-07T01:16:46.049Z,100774.23
2018-12-07T01:19:13.564Z,100771.30
2018-12-07T01:21:41.012Z,100775.29
2018-12-07T01:24:08.483Z,100767.40
2018-12-07T01:26:36.103Z,100767.33
2018-12-07T01:29:03.579Z,100760.24
2018-12-07T01:31:31.073Z,100762.55
2018-12-07T01:33:58.542Z,100766.80
2018-12-07T01:36:26.053Z,100763.33
2018-12-07T01:38:53.493Z,100764.06
2018-12-07T01:41:20.976Z,100764.73
2018-12-07T01:43:48.463Z,100762.23
2018-12-07T01:46:15.935Z,100765.13
2018-12-07T01:48:43.510Z,100759.11
2018-12-07T01:51:10.986Z,100753.28
2018-12-07T01:53:38.508Z,100759.55
2018-12-07T01:56:05.997Z,100756.95
2018-12-07T01:58:33.451Z,100752.61
2018-12-07T02:01:04.879Z,100750.95
2018-12-07T02:03:32.365Z,100745.86
2018-12-07T02:05:59.816Z,100728.80
2018-12-07T02:08:27.266Z,100730.09
2018-12-07T02:10:54.845Z,100718.28
2018-12-07T02:13:22.378Z,100725.36
2018-12-07T02:15:49.841Z,100720.23
2018-12-07T02:18:17.347Z,100710.56
2018-12-07T02:20:44.805Z,100695.80
2018-12-07T02:23:12.273Z,100706.83
2018-12-07T02:25:39.735Z,100697.74
2018-12-07T02:28:07.203Z,100701.28
2018-12-07T02:30:34.799Z,100697.71
2018-12-07T02:33:02.359Z,100689.92
2018-12-07T02:35:29.833Z,100694.05
2018-12-07T02:37:57.310Z,100686.39
2018-12-07T02:40:24.850Z,100692.00
2018-12-07T02:42:52.307Z,100686.73
2018-12-07T02:45:19.797Z,100684.73
2018-12-07T02:47:47.340Z,100678.89
2018-12-07T02:50:14.923Z,100678.59
2018-12-07T02:52:42.401Z,100672.91
2018-12-07T02:55:09.852Z,100672.40
2018-12-07T02:57:38.138Z,100666.33
2018-12-07T03:00:06.795Z,100658.19
2018-12-07T03:02:34.281Z,100661.50
2018-12-07T03:05:01.773Z,100656.50
2018-12-07T03:07:29.258Z,100649.88
2018-12-07T03:09:56.710Z,100652.84
2018-12-07T03:12:24.204Z,100645.18
2018-12-07T03:14:51.678Z,100647.22
2018-12-07T03:17:19.180Z,100637.98
2018-12-07T03:19:46.638Z,100626.63
2018-12-07T03:22:14.187Z,100628.86
2018-12-07T03:24:41.652Z,100629.61
2018-12-07T03:27:09.128Z,100632.83
2018-12-07T03:29:36.602Z,100624.23
2018-12-07T03:32:04.075Z,100627.34
2018-12-07T03:34:31.736Z,100623.35
2018-12-07T03:36:59.212Z,100615.30
2018-12-07T03:39:26.699Z,100612.22
2018-12-07T03:41:54.196Z,100610.67
2018-12-07T03:44:21.638Z,100611.80
2018-12-07T03:46:49.114Z,100606.59
2018-12-07T03:49:16.596Z,100613.75
2018-12-07T03:51:44.071Z,100601.43
2018-12-07T03:54:11.553Z,100605.58
2018-12-07T03:56:39.010Z,100603.99
2018-12-07T03:59:06.494Z,100606.72
2018-12-07T04:01:33.939Z,100599.52
2018-12-07T04:04:01.415Z,100595.78
2018-12-07T04:06:28.903Z,100599.13
2018-12-07T04:08:56.392Z,100591.41
2018-12-07T04:11:23.904Z,100590.63
2018-12-07T04:13:51.385Z,100586.89
2018-12-07T04:16:18.872Z,100585.19
2018-12-07T04:18:46.489Z,100585.44
2018-12-07T04:21:13.933Z,100575.58
2018-12-07T04:23:41.406Z,100581.70
2018-12-07T04:26:08.886Z,100573.10
2018-12-07T04:28:36.386Z,100570.29
2018-12-07T04:31:04.064Z,100569.93
2018-12-07T04:33:31.630Z,100570.33
2018-12-07T04:36:07.155Z,100570.03
2018-12-07T04:38:28.571Z,100572.30
2018-12-07T04:40:56.078Z,100571.16
2018-12-07T04:43:23.561Z,100568.41
2018-12-07T04:45:51.054Z,100572.30
2018-12-07T04:48:18.642Z,100570.64
2018-12-07T04:50:46.097Z,100574.33
2018-12-07T04:53:13.593Z,100570.01
2018-12-07T04:55:41.125Z,100566.45
2018-12-07T04:58:08.627Z,100570.06
2018-12-07T05:00:36.536Z,100558.09
2018-12-07T05:03:04.589Z,100556.00
2018-12-07T05:05:32.131Z,100556.58
2018-12-07T05:07:59.568Z,100551.33
2018-12-07T05:10:27.060Z,100546.55
2018-12-07T05:12:54.558Z,100545.17
2018-12-07T05:15:22.047Z,100547.80
2018-12-07T05:17:49.517Z,100547.22
2018-12-07T05:20:17.024Z,100546.07
2018-12-07T05:22:44.530Z,100547.19
2018-12-07T05:25:11.990Z,100545.77
2018-12-07T05:27:39.525Z,100551.41
2018-12-07T05:30:07.281Z,100554.44
2018-12-07T05:32:34.746Z,100549.91
2018-12-07T05:35:02.223Z,100548.52
2018-12-07T05:37:29.721Z,100546.94
2018-12-07T05:39:57.198Z,100537.08
2018-12-07T05:42:24.671Z,100536.53
2018-12-07T05:44:52.122Z,100539.94
2018-12-07T05:47:19.602Z,100536.47
2018-12-07T05:49:47.085Z,100542.02
2018-12-07T05:52:14.560Z,100542.75
2018-12-07T05:54:42.037Z,100541.42
2018-12-07T05:57:09.517Z,100546.19
2018-12-07T05:59:36.984Z,100545.40
2018-12-07T06:02:04.523Z,100541.71
2018-12-07T06:04:32.011Z,100537.52
2018-12-07T06:06:59.458Z,100540.20
2018-12-07T06:09:26.949Z,100532.11
2018-12-07T06:11:55.149Z,100528.52
2018-12-07T06:14:22.916Z,100530.04
2018-12-07T06:16:50.379Z,100525.15
2018-12-07T06:19:17.873Z,100534.48
2018-12-07T06:21:45.360Z,100536.65
2018-12-07T06:24:12.850Z,100534.48
2018-12-07T06:26:40.345Z,100527.20
2018-12-07T06:29:07.833Z,100529.59
2018-12-07T06:31:35.320Z,100529.74
2018-12-07T06:34:02.819Z,100520.34
2018-12-07T06:36:30.304Z,100521.78
2018-12-07T06:38:57.831Z,100520.62
2018-12-07T06:41:25.342Z,100524.55
2018-12-07T06:43:52.850Z,100518.98
2018-12-07T06:46:20.358Z,100520.86
2018-12-07T06:49:08.880Z,100518.77
2018-12-07T06:51:36.408Z,100513.48
2018-12-07T06:54:03.927Z,100513.48
2018-12-07T06:56:31.488Z,100509.73
2018-12-07T06:58:58.986Z,100505.92
2018-12-07T07:01:26.447Z,100505.70
2018-12-07T07:03:53.929Z,100501.70
2018-12-07T07:06:21.460Z,100495.98
2018-12-07T07:08:48.944Z,100500.49
2018-12-07T07:11:16.483Z,100503.23
2018-12-07T07:13:43.967Z,100502.47
2018-12-07T07:16:11.489Z,100502.10
2018-12-07T07:18:39.073Z,100502.22
2018-12-07T07:21:06.580Z,100506.93
2018-12-07T07:23:34.743Z,100502.72
2018-12-07T07:26:02.243Z,100508.36
2018-12-07T07:28:29.707Z,100503.15
2018-12-07T07:30:57.191Z,100507.55
2018-12-07T07:33:24.671Z,100509.38
2018-12-07T07:35:52.180Z,100505.67
2018-12-07T07:38:19.717Z,100505.11
2018-12-07T07:40:47.263Z,100504.31
2018-12-07T07:43:14.745Z,100493.69
2018-12-07T07:45:42.266Z,100492.45
2018-12-07T07:48:09.810Z,100490.88
2018-12-07T07:50:37.355Z,100489.39
2018-12-07T07:53:04.851Z,100486.23
2018-12-07T07:55:32.344Z,100476.34
2018-12-07T07:57:59.810Z,100477.30
2018-12-07T08:00:27.322Z,100472.21
2018-12-07T08:02:54.830Z,100462.13
2018-12-07T08:05:22.416Z,100470.67
2018-12-07T08:07:49.933Z,100463.00
2018-12-07T08:10:17.385Z,100453.05
2018-12-07T08:12:44.852Z,100450.63
2018-12-07T08:15:12.358Z,100447.42
2018-12-07T08:17:39.941Z,100445.80
2018-12-07T08:20:07.417Z,100444.95
2018-12-07T08:22:35.005Z,100446.25
2018-12-07T08:25:02.513Z,100439.88
2018-12-07T08:27:30.041Z,100437.77
2018-12-07T08:29:57.521Z,100442.22
2018-12-07T08:32:25.177Z,100435.53
2018-12-07T08:34:52.745Z,100428.05
2018-12-07T08:37:20.296Z,100436.47
2018-12-07T08:39:47.896Z,100439.55
2018-12-07T08:42:15.432Z,100436.20
2018-12-07T08:44:42.906Z,100427.12
2018-12-07T08:47:10.404Z,100439.35
2018-12-07T08:49:43.534Z,100434.65
2018-12-07T08:52:11.009Z,100436.66
2018-12-07T08:54:38.570Z,100429.89
2018-12-07T08:57:06.173Z,100425.83
2018-12-07T08:59:33.742Z,100428.49
2018-12-07T09:02:01.238Z,100423.62
2018-12-07T09:04:28.718Z,100422.44
2018-12-07T09:06:56.304Z,100419.07
2018-12-07T09:09:23.806Z,100417.70
2018-12-07T09:11:51.308Z,100414.79
2018-12-07T09:14:18.787Z,100413.37
2018-12-07T09:16:46.352Z,100412.25
2018-12-07T09:19:13.829Z,100407.42
2018-12-07T09:21:41.323Z,100407.67
2018-12-07T09:24:08.850Z,100394.95
2018-12-07T09:26:36.314Z,100397.88
2018-12-07T09:29:03.846Z,100393.42
2018-12-07T09:31:31.308Z,100393.06
2018-12-07T09:33:58.789Z,100384.53
2018-12-07T09:36:26.358Z,100392.87
2018-12-07T09:38:53.844Z,100390.32
2018-12-07T09:41:21.308Z,100375.95
2018-12-07T09:43:48.844Z,100373.59
2018-12-07T09:46:16.307Z,100373.78
2018-12-07T09:48:43.788Z,100377.73
2018-12-07T09:51:11.244Z,100371.66
2018-12-07T09:53:38.766Z,100367.77
2018-12-07T09:56:06.266Z,100355.13
2018-12-07T09:58:33.833Z,100349.09
2018-12-07T10:01:01.337Z,100350.45
2018-12-07T10:03:28.824Z,100346.55
2018-12-07T10:05:56.347Z,100349.16
2018-12-07T10:08:23.832Z,100342.41
2018-12-07T10:10:51.316Z,100336.57
2018-12-07T10:13:18.851Z,100338.89
2018-12-07T10:15:46.324Z,100326.70
2018-12-07T10:18:13.832Z,100318.59
2018-12-07T10:20:41.320Z,100312.67
2018-12-07T10:23:08.824Z,100298.92
2018-12-07T10:25:36.314Z,100295.92
2018-12-07T10:28:03.827Z,100288.16
2018-12-07T10:30:31.322Z,100284.95
2018-12-07T10:32:58.857Z,100276.58
2018-12-07T10:35:26.424Z,100281.44
2018-12-07T10:37:53.916Z,100268.80
2018-12-07T10:40:21.448Z,100272.10
2018-12-07T10:42:48.987Z,100260.94
2018-12-07T10:45:16.471Z,100267.45
2018-12-07T10:47:50.102Z,100260.03
2018-12-07T10:50:13.957Z,100255.64
2018-12-07T10:52:41.525Z,100244.57
2018-12-07T10:55:09.041Z,100238.23
2018-12-07T10:57:36.506Z,100236.11
2018-12-07T11:00:08.223Z,100239.14
2018-12-07T11:02:41.225Z,100230.02
2018-12-07T11:05:14.275Z,100225.20
2018-12-07T11:07:47.484Z,100215.91
2018-12-07T11:10:20.740Z,100214.39
2018-12-07T11:12:53.973Z,100212.17
2018-12-07T11:15:26.993Z,100205.70
2018-12-07T11:25:12.202Z,100191.05
2018-12-07T11:27:45.353Z,100189.04
2018-12-07T11:30:18.594Z,100178.25
2018-12-07T11:32:51.888Z,100177.39
2018-12-07T11:35:21.315Z,100165.30
2018-12-07T11:37:48.864Z,100166.60
2018-12-07T11:40:16.392Z,100158.34
2018-12-07T11:42:43.871Z,100156.82
2018-12-07T11:45:11.467Z,100155.16
2018-12-07T11:47:39.012Z,100153.34
2018-12-07T11:50:08.102Z,100146.44
2018-12-07T11:52:35.618Z,100147.27
2018-12-07T11:55:03.630Z,100145.96
2018-12-07T11:57:31.156Z,100139.41
2018-12-07T11:59:58.650Z,100133.84
2018-12-07T12:02:26.639Z,100132.89
2018-12-07T12:04:54.283Z,100127.25
2018-12-07T12:07:21.803Z,100118.59
2018-12-07T12:09:49.321Z,100115.45
2018-12-07T12:12:16.814Z,100117.62
2018-12-07T12:14:44.316Z,100118.92
2018-12-07T12:17:11.835Z,100112.26
2018-12-07T12:19:39.325Z,100107.88
2018-12-07T12:22:07.921Z,100109.89
2018-12-07T12:24:35.637Z,100112.11
2018-12-07T12:27:03.135Z,100098.25
2018-12-07T12:29:30.601Z,100100.42
2018-12-07T12:31:58.094Z,100087.64
2018-12-07T12:34:25.577Z,100088.63
2018-12-07T12:36:53.123Z,100078.13
2018-12-07T12:39:20.607Z,100079.98
2018-12-07T12:58:35.081Z,100052.73
2018-12-07T13:01:02.565Z,100054.10
2018-12-07T13:03:30.103Z,100042.81
2018-12-07T13:05:57.671Z,100042.16
2018-12-07T13:08:25.178Z,100040.77
2018-12-07T13:10:52.689Z,100033.48
2018-12-07T13:13:20.163Z,100032.17
2018-12-07T13:15:47.661Z,100023.25
2018-12-07T13:18:15.169Z,100020.93
2018-12-07T13:20:42.647Z,100010.88
2018-12-07T13:23:10.139Z,100005.59
2018-12-07T13:25:37.612Z,100006.50
2018-12-07T13:28:05.132Z,99997.27
2018-12-07T13:30:32.706Z,99995.10
2018-12-07T13:33:00.225Z,99989.27
2018-12-07T13:35:27.685Z,99990.11
2018-12-07T13:37:55.257Z,99980.17
2018-12-07T13:40:22.862Z,99967.22
2018-12-07T13:42:50.558Z,99969.25
2018-12-07T13:45:18.284Z,99963.17
2018-12-07T13:47:46.871Z,99962.23
2018-12-07T13:50:20.234Z,99957.53
2018-12-07T13:52:47.842Z,99949.73
2018-12-07T13:55:15.666Z,99951.89
2018-12-07T13:57:43.370Z,99941.56
2018-12-07T14:00:11.833Z,99935.84
2018-12-07T14:02:39.661Z,99928.04
2018-12-07T14:05:10.991Z,99923.77
2018-12-07T14:07:38.816Z,99926.20
2018-12-07T14:10:06.535Z,99917.55
2018-12-07T14:12:34.187Z,99910.14
2018-12-07T14:15:01.784Z,99909.82
2018-12-07T14:17:29.467Z,99909.06
2018-12-07T14:19:57.360Z,99908.38
2018-12-07T14:22:25.155Z,99900.02
2018-12-07T14:24:52.855Z,99892.47
2018-12-07T14:27:20.586Z,99888.53
2018-12-07T14:29:48.237Z,99891.73
2018-12-07T14:32:16.762Z,99889.07
2018-12-07T14:34:44.439Z,99882.92
2018-12-07T14:37:12.115Z,99878.95
2018-12-07T14:39:39.898Z,99875.12
2018-12-07T14:42:07.655Z,99873.78
2018-12-07T14:44:36.165Z,99876.35
2018-12-07T14:47:03.867Z,99871.47
2018-12-07T14:49:31.561Z,99868.95
2018-12-07T14:51:59.191Z,99860.53
2018-12-07T14:54:26.709Z,99857.42
2018-12-07T14:56:54.270Z,99849.50
2018-12-07T14:59:21.893Z,99850.38
2018-12-07T15:01:49.711Z,99846.91
2018-12-07T15:04:17.370Z,99849.14
2018-12-07T15:06:44.942Z,99849.55
2018-12-07T15:09:12.474Z,99846.83
2018-12-07T15:11:40.063Z,99840.80
2018-12-07T15:14:07.751Z,99835.13
2018-12-07T15:16:35.586Z,99832.45
2018-12-07T15:19:03.370Z,99835.92
2018-12-07T15:21:31.004Z,99834.08
2018-12-07T15:23:58.773Z,99825.37
2018-12-07T15:26:26.319Z,99816.41
2018-12-07T15:28:53.988Z,99809.38
2018-12-07T15:31:22.637Z,99802.80
2018-12-07T15:33:50.630Z,99794.27
2018-12-07T15:36:18.137Z,99799.05
2018-12-07T15:38:45.798Z,99799.05
2018-12-07T15:41:13.381Z,99792.76
2018-12-07T15:43:41.265Z,99784.66
2018-12-07T15:46:09.044Z,99776.47
2018-12-07T15:48:36.709Z,99768.59
2018-12-07T15:51:05.101Z,99763.46
2018-12-07T15:53:32.867Z,99758.16
2018-12-07T15:56:00.496Z,99762.42
2018-12-07T15:58:28.275Z,99741.63
2018-12-07T16:00:56.159Z,99742.45
2018-12-07T16:03:23.737Z,99735.48
2018-12-07T16:05:51.622Z,99730.28
2018-12-07T16:08:24.884Z,99721.22
2018-12-07T16:10:49.308Z,99721.62
2018-12-07T16:13:17.364Z,99704.75
2018-12-07T16:15:45.329Z,99703.52
2018-12-07T16:18:13.158Z,99701.78
2018-12-07T16:20:40.814Z,99697.48
2018-12-07T16:23:08.481Z,99694.42
2018-12-07T16:25:36.419Z,99683.58
2018-12-07T16:28:04.317Z,99680.12
2018-12-07T16:30:32.018Z,99671.08
2018-12-07T16:32:59.659Z,99668.35
2018-12-07T16:35:27.299Z,99663.52
2018-12-07T16:37:54.838Z,99657.42
2018-12-07T16:40:22.602Z,99653.02
2018-12-07T16:42:50.230Z,99645.78
2018-12-07T16:45:17.935Z,99650.13
2018-12-07T16:50:19.961Z,99638.80
2018-12-07T16:52:47.700Z,99621.89
2018-12-07T16:55:15.393Z,99621.37
2018-12-07T16:57:43.178Z,99616.60
2018-12-07T17:00:10.954Z,99609.73
2018-12-07T17:02:38.774Z,99609.30
2018-12-07T17:05:07.787Z,99598.81
2018-12-07T17:07:35.709Z,99590.52
2018-12-07T17:10:04.562Z,99586.21
2018-12-07T17:12:32.131Z,99585.91
2018-12-07T17:14:59.766Z,99586.30
2018-12-07T17:17:27.624Z,99589.34
2018-12-07T17:19:55.184Z,99594.91
2018-12-07T17:22:23.080Z,99590.08
2018-12-07T17:24:50.860Z,99590.64
2018-12-07T17:27:18.450Z,99596.80
2018-12-07T17:29:45.988Z,99586.40
2018-12-07T17:32:13.453Z,99582.84
2018-12-07T17:34:41.474Z,99582.03
2018-12-07T17:37:09.156Z,99579.80
2018-12-07T17:39:36.728Z,99575.66
2018-12-07T17:42:04.256Z,99576.41
2018-12-07T17:44:32.071Z,99566.41
2018-12-07T17:46:59.875Z,99566.37
2018-12-07T17:49:27.693Z,99568.20
2018-12-07T17:51:55.321Z,99558.58
2018-12-07T17:54:23.097Z,99548.88
2018-12-07T17:56:50.758Z,99550.55
2018-12-07T17:59:18.547Z,99550.66
2018-12-07T18:01:46.105Z,99549.77
2018-12-07T18:04:13.585Z,99534.64
2018-12-07T18:06:41.313Z,99533.48
2018-12-07T18:09:09.289Z,99533.77
2018-12-07T18:11:36.914Z,99531.45
2018-12-07T18:14:04.761Z,99523.66
2018-12-07T18:16:32.615Z,99517.16
2018-12-07T18:19:00.252Z,99514.08
2018-12-07T18:21:27.912Z,99506.37
2018-12-07T18:23:55.516Z,99507.23
2018-12-07T18:26:23.076Z,99498.52
2018-12-07T18:28:50.569Z,99497.53
2018-12-07T18:31:18.168Z,99490.23
2018-12-07T18:33:45.943Z,99493.20
2018-12-07T18:36:13.586Z,99487.60
2018-12-07T18:38:41.277Z,99493.27
2018-12-07T18:41:08.866Z,99487.23
2018-12-07T18:43:36.497Z,99478.19
2018-12-07T18:46:04.182Z,99482.92
2018-12-07T18:48:32.101Z,99484.63
2018-12-07T18:50:59.802Z,99478.13
2018-12-07T18:53:27.564Z,99475.53
2018-12-07T18:55:55.280Z,99468.17
2018-12-07T18:58:22.959Z,99456.97
2018-12-07T19:00:50.626Z,99457.70
2018-12-07T19:03:18.288Z,99455.94
2018-12-07T19:05:45.967Z,99459.16
2018-12-07T19:08:13.873Z,99459.11
2018-12-07T19:10:41.788Z,99452.61
2018-12-07T19:13:09.512Z,99452.09
2018-12-07T19:15:37.262Z,99453.02
2018-12-07T19:18:04.965Z,99450.01
2018-12-07T19:20:32.859Z,99443.95
2018-12-07T19:23:01.455Z,99451.77
2018-12-07T19:25:29.067Z,99455.20
2018-12-07T19:27:56.652Z,99447.90
2018-12-07T19:30:24.320Z,99452.20
2018-12-07T19:32:52.040Z,99445.63
2018-12-07T19:35:19.545Z,99443.49
2018-12-07T19:37:47.124Z,99437.00
2018-12-07T19:40:15.035Z,99432.09
2018-12-07T19:42:43.065Z,99426.95
2018-12-07T19:45:11.083Z,99416.88
2018-12-07T19:47:38.887Z,99408.72
2018-12-07T19:50:07.353Z,99406.98
2018-12-07T19:52:35.060Z,99404.81
2018-12-07T19:55:02.824Z,99398.27
2018-12-07T19:57:31.090Z,99396.56
2018-12-07T19:59:58.758Z,99383.16
2018-12-07T20:02:26.308Z,99377.97
2018-12-07T20:04:54.009Z,99378.76
2018-12-07T20:07:21.853Z,99368.34
2018-12-07T20:09:49.445Z,99370.08
2018-12-07T20:12:17.191Z,99373.08
2018-12-07T20:14:45.071Z,99367.48
2018-12-07T20:17:12.842Z,99368.72
2018-12-07T20:19:40.616Z,99351.94
2018-12-07T20:22:08.449Z,99359.25
2018-12-07T20:24:35.962Z,99359.15
2018-12-07T20:27:03.760Z,99358.17
2018-12-07T20:29:31.638Z,99350.44
2018-12-07T20:31:59.566Z,99353.44
2018-12-07T20:34:27.287Z,99346.55
2018-12-07T20:36:54.925Z,99344.30
2018-12-07T20:39:22.613Z,99343.89
2018-12-07T20:41:50.412Z,99327.83
2018-12-07T20:44:18.071Z,99323.02
2018-12-07T20:46:45.558Z,99326.94
2018-12-07T20:49:13.661Z,99324.37
2018-12-07T20:51:41.227Z,99323.52
2018-12-07T20:54:09.014Z,99319.22
2018-12-07T20:56:36.947Z,99329.58
2018-12-07T20:59:04.704Z,99323.13
2018-12-07T21:01:32.702Z,99318.48
2018-12-07T21:04:24.910Z,99315.08
2018-12-07T21:10:57.085Z,99322.37
2018-12-07T21:14:02.068Z,99313.61
2018-12-07T21:16:57.344Z,99310.27
2018-12-07T21:19:25.321Z,99314.62
2018-12-07T21:21:53.301Z,99323.22
2018-12-07T21:24:21.136Z,99301.47
2018-12-07T21:26:48.808Z,99298.33
2018-12-07T21:29:16.727Z,99301.81
2018-12-07T21:31:44.456Z,99306.63
2018-12-07T21:34:22.637Z,99302.73
2018-12-07T21:36:50.491Z,99290.80
2018-12-07T21:39:21.134Z,99286.88
2018-12-07T21:41:49.508Z,99281.34
2018-12-07T21:44:18.230Z,99285.64
2018-12-07T21:46:46.176Z,99284.73
2018-12-07T21:49:14.030Z,99280.61
2018-12-07T21:51:54.702Z,99276.73
2018-12-07T21:54:22.432Z,99282.77
2018-12-07T21:56:50.187Z,99278.98
2018-12-07T21:59:17.892Z,99271.50
2018-12-07T22:01:45.674Z,99275.70
2018-12-07T22:04:13.515Z,99269.22
2018-12-07T22:06:41.471Z,99277.39
2018-12-07T22:09:09.208Z,99278.72
2018-12-07T22:11:36.825Z,99276.64
2018-12-07T22:14:08.663Z,99271.02
2018-12-07T22:16:36.305Z,99271.79
2018-12-07T22:19:03.853Z,99272.80
2018-12-07T22:21:31.322Z,99266.28
2018-12-07T22:23:58.920Z,99263.30
2018-12-07T22:26:26.687Z,99265.41
2018-12-07T22:28:54.180Z,99258.11
2018-12-07T22:31:22.055Z,99255.87
2018-12-07T22:33:49.770Z,99257.08
2018-12-07T22:36:17.414Z,99255.79
2018-12-07T22:38:45.307Z,99254.59
2018-12-07T22:41:13.299Z,99250.89
2018-12-07T22:43:40.992Z,99252.78
2018-12-07T22:46:08.771Z,99245.49
2018-12-07T22:48:36.484Z,99255.00
2018-12-07T22:53:37.818Z,99251.59
2018-12-07T22:56:05.322Z,99250.33
2018-12-07T22:58:32.809Z,99251.66
2018-12-07T23:01:00.307Z,99239.94
2018-12-07T23:03:27.802Z,99242.48
2018-12-07T23:05:55.326Z,99244.70
2018-12-07T23:08:22.798Z,99246.81
2018-12-07T23:10:50.277Z,99245.09
2018-12-07T23:13:17.761Z,99242.61
2018-12-07T23:15:45.252Z,99246.48
2018-12-07T23:18:12.752Z,99252.03
2018-12-07T23:20:40.244Z,99255.10
2018-12-07T23:23:07.711Z,99253.76
2018-12-07T23:25:35.200Z,99259.84
2018-12-07T23:28:02.788Z,99261.59
2018-12-07T23:30:30.270Z,99256.77
2018-12-07T23:32:57.735Z,99258.90
2018-12-07T23:35:25.302Z,99258.98
2018-12-07T23:37:52.780Z,99265.00
2018-12-07T23:40:20.299Z,99282.28
2018-12-07T23:42:47.798Z,99271.90
2018-12-07T23:45:15.388Z,99292.64
2018-12-07T23:47:42.864Z,99289.98
2018-12-07T23:50:10.552Z,99305.08
2018-12-07T23:52:38.090Z,99309.72
2018-12-07T23:55:05.579Z,99308.08
2018-12-07T23:57:33.054Z,99312.84
